Time;durP1;ratioP1;P1;durP2;ratioP2;P2;SDS_P1;SDS_P2;PMS_P1;PMS_P2;Temp;Humidity;BMP_temperature;BMP_pressure;BME280_temperature;BME280_humidity;BME280_pressure;Samples;Min_cycle;Max_cycle;Signal;HPM_P1;HPM_P2
2022/01/24 00:00:51;;;;;;;268.90;254.48;;;;;;;3.31;100.00;102830.00;5059959;28;20053;-79
2022/01/24 00:03:19;;;;;;;245.85;232.75;;;;;;;3.31;100.00;102833.53;5047600;28;20059;-78
2022/01/24 00:05:52;;;;;;;282.02;266.85;;;;;;;3.33;100.00;102826.13;5045590;28;20059;-79
2022/01/24 00:08:26;;;;;;;259.15;245.13;;;;;;;3.26;100.00;102837.75;5044161;28;20045;-79
2022/01/24 00:11:05;;;;;;;320.58;302.70;;;;;;;3.17;100.00;102824.34;5050269;28;20049;-79
2022/01/24 00:16:34;;;;;;;393.50;370.38;;;;;;;3.09;100.00;102835.16;5049562;28;20053;-78
2022/01/24 00:27:35;;;;;;;1058.75;978.58;;;;;;;3.20;100.00;102833.94;5036874;28;20041;-79
2022/01/24 00:30:10;;;;;;;1125.47;999.90;;;;;;;3.21;100.00;102828.38;5049344;28;20053;-80
2022/01/24 00:32:45;;;;;;;1169.68;999.90;;;;;;;3.29;100.00;102827.50;5047739;28;20053;-78
2022/01/24 00:35:13;;;;;;;1190.20;999.90;;;;;;;3.30;100.00;102823.78;5047592;28;20053;-79
2022/01/24 00:37:47;;;;;;;1198.20;999.90;;;;;;;3.26;100.00;102819.78;5050493;28;20405;-79
2022/01/24 00:40:20;;;;;;;1209.63;999.90;;;;;;;3.22;100.00;102827.38;5043658;28;20053;-79
2022/01/24 00:42:56;;;;;;;1211.03;999.90;;;;;;;3.27;100.00;102824.13;5063883;28;20075;-79
2022/01/24 00:45:35;;;;;;;1212.65;999.90;;;;;;;3.20;100.00;102821.34;5045308;28;20072;-79
2022/01/24 00:48:28;;;;;;;1214.75;999.90;;;;;;;3.27;100.00;102826.00;5044937;28;20099;-79
2022/01/24 00:54:03;;;;;;;1226.57;999.90;;;;;;;3.35;100.00;102807.94;5042521;28;20047;-79
2022/01/24 00:56:31;;;;;;;1225.82;999.90;;;;;;;3.36;100.00;102816.84;5045399;28;20461;-79
2022/01/24 00:58:59;;;;;;;1235.07;999.90;;;;;;;3.45;100.00;102828.41;5046324;28;20049;-80
2022/01/24 01:01:32;;;;;;;1237.07;999.90;;;;;;;3.48;100.00;102823.50;5046004;28;20405;-78
2022/01/24 01:04:02;;;;;;;1238.82;999.90;;;;;;;3.43;100.00;102809.75;5060598;28;20045;-79
2022/01/24 01:06:38;;;;;;;1245.75;999.90;;;;;;;3.53;100.00;102825.66;5050159;28;20405;-78
2022/01/24 01:18:14;;;;;;;1258.95;999.90;;;;;;;3.64;100.00;102830.59;5040829;28;20046;-79
2022/01/24 01:21:08;;;;;;;1257.87;999.90;;;;;;;3.68;100.00;102829.22;5045210;28;20053;-79
2022/01/24 01:23:47;;;;;;;1253.07;999.90;;;;;;;3.67;100.00;102826.72;5058944;28;20050;-79
2022/01/24 01:26:26;;;;;;;1257.25;999.90;;;;;;;3.67;100.00;102829.41;5038270;28;20045;-80
2022/01/24 01:29:04;;;;;;;1249.10;999.90;;;;;;;3.66;100.00;102828.59;5050271;28;20045;-80
2022/01/24 01:31:45;;;;;;;1255.50;999.90;;;;;;;3.72;100.00;102827.03;5039955;28;20394;-79
2022/01/24 01:34:39;;;;;;;1253.70;999.90;;;;;;;3.66;100.00;102833.13;5050824;28;20057;-79
2022/01/24 01:37:25;;;;;;;1249.15;999.90;;;;;;;3.66;100.00;102823.19;5047373;28;20048;-79
2022/01/24 01:54:33;;;;;;;1274.90;999.90;;;;;;;3.82;100.00;102832.16;5050426;28;20493;-79
2022/01/24 01:57:11;;;;;;;1277.03;999.90;;;;;;;3.76;100.00;102833.72;5055415;28;20052;-79
2022/01/24 01:59:40;;;;;;;1275.65;999.90;;;;;;;3.65;100.00;102818.00;5047809;28;20385;-79
2022/01/24 02:02:13;;;;;;;1274.63;999.90;;;;;;;3.71;100.00;102825.34;5050803;28;20040;-79
2022/01/24 02:04:42;;;;;;;1276.93;999.90;;;;;;;3.70;100.00;102820.97;5049435;28;20448;-79
2022/01/24 02:07:17;;;;;;;1280.45;999.90;;;;;;;3.61;100.00;102808.59;5049197;28;20383;-79
2022/01/24 02:09:51;;;;;;;1273.50;999.90;;;;;;;3.68;100.00;102820.31;5042783;28;20409;-80
2022/01/24 02:12:27;;;;;;;1276.45;999.90;;;;;;;3.72;100.00;102821.63;5056453;28;20048;-79
2022/01/24 02:15:01;;;;;;;1275.65;999.90;;;;;;;3.65;100.00;102823.38;5046843;28;20060;-78
2022/01/24 02:17:42;;;;;;;1277.50;999.90;;;;;;;3.63;100.00;102823.53;5053313;28;20040;-79
2022/01/24 02:20:38;;;;;;;1285.37;999.90;;;;;;;3.65;100.00;102826.06;5044405;28;20063;-79
2022/01/24 02:23:36;;;;;;;1290.97;999.90;;;;;;;3.66;100.00;102827.72;5046874;28;20496;-79
2022/01/24 02:26:14;;;;;;;1297.18;999.90;;;;;;;3.68;100.00;102813.06;5044308;28;20053;-79
2022/01/24 02:29:03;;;;;;;1299.38;999.90;;;;;;;3.64;100.00;102822.53;5047056;28;20051;-79
2022/01/24 02:31:42;;;;;;;1297.38;999.90;;;;;;;3.65;100.00;102818.00;5062421;28;20425;-80
2022/01/24 02:34:26;;;;;;;1291.82;999.90;;;;;;;3.63;100.00;102820.84;5050458;28;20512;-79
2022/01/24 02:37:02;;;;;;;1301.38;999.90;;;;;;;3.64;100.00;102821.69;5049284;28;20057;-79
2022/01/24 02:39:52;;;;;;;1308.00;999.90;;;;;;;3.66;100.00;102816.97;5045743;28;20049;-78
2022/01/24 02:48:24;;;;;;;1293.95;999.90;;;;;;;3.58;100.00;102820.56;5047780;28;20071;-79
2022/01/24 02:51:21;;;;;;;1301.72;999.90;;;;;;;3.60;100.00;102820.38;5052114;28;20036;-79
2022/01/24 02:53:50;;;;;;;1306.85;999.90;;;;;;;3.59;100.00;102808.78;5044708;28;20053;-79
2022/01/24 02:56:24;;;;;;;1314.97;999.90;;;;;;;3.58;100.00;102817.88;5053874;28;20040;-80
2022/01/24 02:58:58;;;;;;;1311.85;999.90;;;;;;;3.59;100.00;102811.47;5063818;28;20060;-80
2022/01/24 03:01:31;;;;;;;1326.30;999.90;;;;;;;3.57;100.00;102806.25;5048828;28;20055;-81
2022/01/24 03:04:04;;;;;;;1325.63;999.90;;;;;;;3.60;100.00;102805.06;5051333;28;20057;-80
2022/01/24 03:06:37;;;;;;;1327.25;999.90;;;;;;;3.57;100.00;102803.56;5045120;28;20049;-80
2022/01/24 03:09:07;;;;;;;1337.40;999.90;;;;;;;3.67;100.00;102806.00;5045925;28;20052;-81
2022/01/24 03:11:59;;;;;;;1335.78;999.90;;;;;;;3.58;100.00;102805.25;5045726;28;20044;-81
2022/01/24 03:14:36;;;;;;;1326.05;999.90;;;;;;;3.51;100.00;102806.97;5052576;28;20052;-81
2022/01/24 03:17:09;;;;;;;1336.28;999.90;;;;;;;3.55;100.00;102807.47;5046956;28;20063;-80
2022/01/24 03:19:43;;;;;;;1335.00;999.90;;;;;;;3.58;100.00;102804.41;5053427;28;20480;-80
2022/01/24 03:22:16;;;;;;;1339.05;999.90;;;;;;;3.62;100.00;102811.13;5062631;28;20057;-80
2022/01/24 03:24:45;;;;;;;1346.30;999.90;;;;;;;3.58;100.00;102801.72;5037049;28;20056;-80
2022/01/24 03:27:20;;;;;;;1338.32;999.90;;;;;;;3.56;100.00;102809.13;5042566;28;20053;-80
2022/01/24 03:29:53;;;;;;;1344.18;999.90;;;;;;;3.61;100.00;102801.34;5046995;28;20041;-80
2022/01/24 03:32:26;;;;;;;1342.50;999.90;;;;;;;3.57;100.00;102802.72;5046997;28;20489;-81
2022/01/24 03:34:59;;;;;;;1336.88;999.90;;;;;;;3.63;100.00;102811.94;5050416;28;20083;-80
2022/01/24 03:37:33;;;;;;;1337.03;999.90;;;;;;;3.52;100.00;102797.91;5065097;28;20044;-81
2022/01/24 03:40:07;;;;;;;1342.38;999.90;;;;;;;3.49;100.00;102798.25;5050874;28;20041;-80
2022/01/24 03:42:42;;;;;;;1341.35;999.90;;;;;;;3.49;100.00;102800.09;5067461;28;20137;-80
2022/01/24 03:45:11;;;;;;;1343.32;999.90;;;;;;;3.55;100.00;102804.78;5039439;28;20056;-81
2022/01/24 03:48:02;;;;;;;1349.43;999.90;;;;;;;3.50;100.00;102810.69;5047418;28;20059;-80
2022/01/24 03:50:30;;;;;;;1350.97;999.90;;;;;;;3.47;100.00;102807.53;5048596;28;20493;-80
2022/01/24 03:53:04;;;;;;;1354.78;999.90;;;;;;;3.47;100.00;102808.34;5053827;28;20048;-80
2022/01/24 03:55:37;;;;;;;1351.72;999.90;;;;;;;3.42;100.00;102813.44;5044559;28;20048;-80
2022/01/24 03:58:12;;;;;;;1354.93;999.90;;;;;;;3.43;100.00;102812.44;5052603;28;20060;-80
2022/01/24 04:00:45;;;;;;;1362.10;999.90;;;;;;;3.46;100.00;102813.94;5049545;28;20059;-81
2022/01/24 04:03:19;;;;;;;1362.60;999.90;;;;;;;3.56;100.00;102809.13;5046809;28;20070;-80
2022/01/24 04:05:47;;;;;;;1371.28;999.90;;;;;;;3.52;100.00;102810.50;5048690;28;20049;-80
2022/01/24 04:08:20;;;;;;;1353.82;999.90;;;;;;;3.47;100.00;102815.63;5046154;28;20051;-80
2022/01/24 04:10:52;;;;;;;1343.65;999.90;;;;;;;3.44;100.00;102832.97;5044778;28;20048;-80
2022/01/24 04:13:31;;;;;;;1336.85;999.90;;;;;;;3.50;100.00;102826.84;5044776;28;20053;-80
2022/01/24 04:16:24;;;;;;;1317.00;999.90;;;;;;;3.45;100.00;102821.16;5040456;28;20053;-80
2022/01/24 04:19:13;;;;;;;1314.20;999.90;;;;;;;3.40;100.00;102824.38;5052835;28;20576;-79
2022/01/24 04:21:48;;;;;;;1301.75;999.90;;;;;;;3.45;100.00;102829.22;5047551;28;20055;-80
2022/01/24 04:24:23;;;;;;;1290.68;999.90;;;;;;;3.49;100.00;102822.47;5045860;28;20073;-80
2022/01/24 04:26:56;;;;;;;1277.10;999.90;;;;;;;3.49;100.00;102822.47;5032853;28;20418;-79
2022/01/24 04:29:31;;;;;;;1262.25;999.90;;;;;;;3.43;100.00;102827.75;5049066;28;20056;-80
2022/01/24 04:32:05;;;;;;;1262.97;999.90;;;;;;;3.43;100.00;102822.38;5046700;28;20050;-80
2022/01/24 04:34:39;;;;;;;1267.50;999.90;;;;;;;3.55;100.00;102811.00;5060236;28;20056;-80
2022/01/24 04:37:07;;;;;;;1257.03;999.90;;;;;;;3.43;100.00;102809.75;5046364;28;20055;-79
2022/01/24 04:39:40;;;;;;;1248.82;999.90;;;;;;;3.35;100.00;102794.47;5047753;28;20053;-80
2022/01/24 04:42:13;;;;;;;1248.30;999.90;;;;;;;3.45;100.00;102809.56;5047370;28;20053;-81
2022/01/24 04:44:57;;;;;;;1256.88;999.90;;;;;;;3.42;100.00;102808.06;5051256;28;20049;-79
2022/01/24 04:47:36;;;;;;;1249.70;999.90;;;;;;;3.33;100.00;102804.59;5045868;28;20053;-80
2022/01/24 04:50:40;;;;;;;1252.32;999.90;;;;;;;3.33;100.00;102812.66;5044465;28;20413;-81
2022/01/24 04:53:29;;;;;;;1257.32;999.90;;;;;;;3.35;100.00;102802.53;5047050;28;20428;-80
2022/01/24 04:56:03;;;;;;;1255.28;999.90;;;;;;;3.33;100.00;102803.72;5059123;28;20486;-81
2022/01/24 04:58:31;;;;;;;1251.82;999.90;;;;;;;3.34;100.00;102808.97;5040323;28;20048;-80
2022/01/24 05:01:01;;;;;;;1251.43;999.90;;;;;;;3.36;100.00;102816.84;5042465;28;20390;-80
2022/01/24 05:03:34;;;;;;;1245.28;999.90;;;;;;;3.38;100.00;102823.75;5050877;28;20048;-81
2022/01/24 05:06:07;;;;;;;1235.60;999.90;;;;;;;3.34;100.00;102814.34;5042408;28;20433;-80
2022/01/24 05:08:35;;;;;;;1246.85;999.90;;;;;;;3.34;100.00;102819.72;5045913;28;20052;-80
2022/01/24 05:11:08;;;;;;;1244.78;999.90;;;;;;;3.29;100.00;102821.28;5048330;28;20052;-79
2022/01/24 05:25:07;;;;;;;1269.03;999.90;;;;;;;3.23;100.00;102804.81;5048853;28;20401;-80
2022/01/24 05:27:40;;;;;;;1263.45;999.90;;;;;;;3.29;100.00;102824.81;5045175;28;20048;-80
2022/01/24 05:30:16;;;;;;;1269.60;999.90;;;;;;;3.17;100.00;102802.84;5058339;28;20063;-81
2022/01/24 05:32:46;;;;;;;1272.85;999.90;;;;;;;3.23;100.00;102820.97;5054882;28;20661;-80
2022/01/24 05:35:14;;;;;;;1270.20;999.90;;;;;;;3.23;100.00;102825.50;5049216;28;20064;-80
2022/01/24 05:37:47;;;;;;;1274.45;999.90;;;;;;;3.20;100.00;102824.03;5052742;28;20495;-82
2022/01/24 05:40:16;;;;;;;1283.82;999.90;;;;;;;3.24;100.00;102829.88;5053166;28;20088;-80
2022/01/24 05:42:44;;;;;;;1288.32;999.90;;;;;;;3.23;100.00;102820.13;5047630;28;20048;-81
2022/01/24 05:45:17;;;;;;;1292.00;999.90;;;;;;;3.22;100.00;102821.97;5051509;28;20056;-80
2022/01/24 05:47:52;;;;;;;1298.43;999.90;;;;;;;3.24;100.00;102824.50;5060492;28;20056;-80
2022/01/24 05:50:20;;;;;;;1303.78;999.90;;;;;;;3.14;100.00;102823.91;5048555;28;20048;-81
2022/01/24 05:52:48;;;;;;;1304.97;999.90;;;;;;;3.21;100.00;102831.06;5044739;28;20049;-80
2022/01/24 05:55:21;;;;;;;1325.78;999.90;;;;;;;3.20;100.00;102829.41;5050356;28;20413;-80
2022/01/24 05:57:55;;;;;;;1324.28;999.90;;;;;;;3.25;100.00;102841.50;5055007;28;20071;-81
2022/01/24 06:00:28;;;;;;;1332.10;999.90;;;;;;;3.28;100.00;102841.97;5044401;28;20055;-80
2022/01/24 06:03:04;;;;;;;1334.78;999.90;;;;;;;3.19;100.00;102838.50;5067715;28;20422;-80
2022/01/24 06:05:37;;;;;;;1326.40;999.90;;;;;;;3.05;100.00;102817.72;5049809;28;20057;-80
2022/01/24 06:08:10;;;;;;;1320.15;999.90;;;;;;;3.11;100.00;102833.16;5054368;28;20044;-80
2022/01/24 06:10:39;;;;;;;1328.32;999.90;;;;;;;3.11;100.00;102835.84;5044228;28;20409;-80
2022/01/24 06:13:07;;;;;;;1339.90;999.90;;;;;;;3.13;100.00;102836.50;5048374;28;20063;-81
2022/01/24 06:15:41;;;;;;;1346.88;999.90;;;;;;;3.10;100.00;102838.72;5046355;28;20053;-80
2022/01/24 06:18:11;;;;;;;1357.07;999.90;;;;;;;3.11;100.00;102835.84;5045859;28;20062;-80
2022/01/24 06:20:44;;;;;;;1356.53;999.90;;;;;;;3.04;100.00;102841.09;5048450;28;20060;-79
2022/01/24 06:23:18;;;;;;;1363.55;999.90;;;;;;;3.08;100.00;102838.91;5046294;28;20057;-80
2022/01/24 06:25:46;;;;;;;1367.22;999.90;;;;;;;3.03;100.00;102823.25;5041716;28;20053;-80
2022/01/24 06:28:19;;;;;;;1373.32;999.90;;;;;;;3.15;100.00;102833.63;5047286;28;20059;-80
2022/01/24 06:30:53;;;;;;;1384.53;999.90;;;;;;;3.14;100.00;102834.66;5049126;28;20048;-80
2022/01/24 06:33:28;;;;;;;1391.10;999.90;;;;;;;3.16;100.00;102833.47;5051663;28;20144;-80
2022/01/24 06:36:02;;;;;;;1386.85;999.90;;;;;;;3.04;100.00;102834.88;5051222;28;20053;-81
2022/01/24 06:38:35;;;;;;;1378.28;999.90;;;;;;;2.99;100.00;102829.19;5056069;28;20037;-80
2022/01/24 06:41:04;;;;;;;1402.10;999.90;;;;;;;3.07;100.00;102831.84;5055223;28;20053;-79
2022/01/24 06:43:37;;;;;;;1393.97;999.90;;;;;;;3.00;100.00;102834.38;5049133;28;20036;-80
2022/01/24 06:46:10;;;;;;;1424.00;999.90;;;;;;;3.00;100.00;102839.75;5068683;28;20041;-80
2022/01/24 06:48:45;;;;;;;1432.28;999.90;;;;;;;2.95;100.00;102830.56;5048487;28;20056;-80
2022/01/24 06:51:18;;;;;;;1454.57;999.90;;;;;;;3.01;100.00;102830.69;5054017;28;20060;-79
2022/01/24 06:53:47;;;;;;;1484.57;999.90;;;;;;;3.00;100.00;102836.25;5048297;28;20076;-80
2022/01/24 06:56:21;;;;;;;1512.60;999.90;;;;;;;2.96;100.00;102837.63;5052307;28;20057;-80
2022/01/24 06:58:54;;;;;;;1515.45;999.90;;;;;;;2.99;100.00;102846.16;5047366;28;20051;-81
2022/01/24 07:01:27;;;;;;;1521.55;999.90;;;;;;;2.93;100.00;102835.25;5053234;28;20048;-80
2022/01/24 07:04:03;;;;;;;1539.65;999.90;;;;;;;2.96;100.00;102832.22;5052406;28;20421;-80
2022/01/24 07:06:31;;;;;;;1545.85;999.90;;;;;;;2.91;100.00;102835.44;5050175;28;20041;-80
2022/01/24 07:08:59;;;;;;;1573.93;999.90;;;;;;;2.94;100.00;102834.25;5052545;28;20044;-80
2022/01/24 07:11:33;;;;;;;1598.65;999.90;;;;;;;2.96;100.00;102830.38;5050193;28;20052;-79
2022/01/24 07:14:11;;;;;;;1630.95;999.90;;;;;;;3.00;100.00;102834.38;5045592;28;20056;-80
2022/01/24 07:17:06;;;;;;;1632.53;999.90;;;;;;;2.95;100.00;102835.94;5042600;28;20057;-80
2022/01/24 07:19:41;;;;;;;1627.80;999.90;;;;;;;3.00;100.00;102836.25;5044447;28;20045;-80
2022/01/24 07:22:14;;;;;;;1629.35;999.90;;;;;;;2.94;100.00;102829.72;5042444;28;20421;-79
2022/01/24 07:24:47;;;;;;;1634.22;999.90;;;;;;;2.95;100.00;102842.13;5044960;28;20049;-80
2022/01/24 07:27:20;;;;;;;1667.60;999.90;;;;;;;2.97;100.00;102833.88;5048735;28;20068;-80
2022/01/24 07:29:54;;;;;;;1667.25;999.90;;;;;;;2.99;100.00;102830.00;5036276;28;20052;-80
2022/01/24 07:32:27;;;;;;;1678.82;999.90;;;;;;;2.93;100.00;102833.41;5045228;28;20049;-79
2022/01/24 07:34:56;;;;;;;1677.43;999.90;;;;;;;2.93;100.00;102830.72;5045673;28;20064;-81
2022/01/24 07:37:25;;;;;;;1685.07;999.90;;;;;;;2.92;100.00;102836.28;5045091;28;20053;-80
2022/01/24 07:39:58;;;;;;;1695.78;999.90;;;;;;;2.85;100.00;102833.47;5046027;28;20057;-80
2022/01/24 07:42:50;;;;;;;1713.82;999.90;;;;;;;2.96;100.00;102848.38;5048361;28;20080;-81
2022/01/24 07:45:24;;;;;;;1726.55;999.90;;;;;;;2.91;100.00;102848.06;5052668;28;20049;-80
2022/01/24 07:47:58;;;;;;;1739.50;999.90;;;;;;;2.99;100.00;102851.53;5047660;28;20048;-81
2022/01/24 07:50:28;;;;;;;1736.68;999.90;;;;;;;2.93;100.00;102843.31;5063219;28;20049;-81
2022/01/24 07:53:02;;;;;;;1742.25;999.90;;;;;;;2.98;100.00;102841.78;5042962;28;20053;-80
2022/01/24 07:55:35;;;;;;;1757.70;999.90;;;;;;;3.04;100.00;102843.78;5030702;28;20054;-80
2022/01/24 07:58:09;;;;;;;1746.68;999.90;;;;;;;3.00;100.00;102847.00;5037513;28;20059;-81
2022/01/24 08:00:38;;;;;;;1742.93;999.90;;;;;;;3.04;100.00;102842.94;5046062;28;20481;-80
2022/01/24 08:03:12;;;;;;;1729.70;999.90;;;;;;;2.98;100.00;102839.09;5044267;28;20056;-80
2022/01/24 08:05:46;;;;;;;1735.00;999.90;;;;;;;3.04;100.00;102851.03;5050777;28;20056;-80
2022/01/24 08:08:21;;;;;;;1746.13;999.90;;;;;;;3.06;100.00;102848.97;5043775;28;20485;-81
2022/01/24 08:10:49;;;;;;;1718.40;999.90;;;;;;;2.93;100.00;102843.31;5048468;28;20048;-81
2022/01/24 08:13:17;;;;;;;1689.47;999.90;;;;;;;2.98;100.00;102847.16;5037262;28;20045;-81
2022/01/24 08:15:51;;;;;;;1714.30;999.90;;;;;;;2.99;100.00;102856.91;5045709;28;20078;-80
2022/01/24 08:18:19;;;;;;;1706.43;999.90;;;;;;;3.02;100.00;102844.97;5047622;28;20052;-80
2022/01/24 08:20:48;;;;;;;1709.28;999.90;;;;;;;3.05;100.00;102841.91;5053072;28;20511;-81
2022/01/24 08:23:22;;;;;;;1713.57;999.90;;;;;;;3.04;100.00;102848.34;5066821;28;20531;-79
2022/01/24 08:25:55;;;;;;;1731.43;999.90;;;;;;;3.06;100.00;102846.28;5049139;28;20072;-80
2022/01/24 08:28:24;;;;;;;1742.68;999.90;;;;;;;3.13;100.00;102835.66;5054677;28;20041;-80
2022/01/24 08:30:57;;;;;;;1745.80;999.90;;;;;;;3.06;100.00;102843.59;5057254;28;20049;-79
2022/01/24 08:33:30;;;;;;;1751.15;999.90;;;;;;;3.06;100.00;102848.97;5061008;28;20048;-80
2022/01/24 08:36:06;;;;;;;1755.70;999.90;;;;;;;3.11;100.00;102835.00;5050617;28;20514;-82
2022/01/24 08:38:39;;;;;;;1762.68;999.90;;;;;;;3.13;100.00;102836.50;5058478;28;20053;-80
2022/01/24 08:41:18;;;;;;;1778.25;999.90;;;;;;;3.11;100.00;102841.22;5039579;28;20080;-80
2022/01/24 08:43:59;;;;;;;1769.85;999.90;;;;;;;3.09;100.00;102837.03;5035204;28;20057;-81
2022/01/24 08:46:32;;;;;;;1765.15;999.90;;;;;;;3.14;100.00;102835.47;5025093;28;20052;-81
2022/01/24 08:49:06;;;;;;;1777.90;999.90;;;;;;;3.08;100.00;102835.34;5019160;28;20052;-80
2022/01/24 08:51:40;;;;;;;1784.57;999.90;;;;;;;2.99;100.00;102835.38;5033963;28;20061;-80
2022/01/24 08:54:14;;;;;;;1770.55;999.90;;;;;;;3.05;100.00;102841.91;5028112;28;20489;-80
2022/01/24 08:56:44;;;;;;;1736.80;999.90;;;;;;;3.06;100.00;102840.91;5022791;28;20056;-80
2022/01/24 08:59:17;;;;;;;1709.85;999.90;;;;;;;3.09;100.00;102845.94;5043962;28;20052;-81
2022/01/24 09:01:47;;;;;;;1737.75;999.90;;;;;;;3.09;100.00;102845.09;5029150;28;20505;-80
2022/01/24 09:04:20;;;;;;;1725.63;999.90;;;;;;;3.09;100.00;102845.94;5021010;28;20060;-80
2022/01/24 09:06:54;;;;;;;1742.07;999.90;;;;;;;3.10;100.00;102839.53;5031501;28;20057;-81
2022/01/24 09:09:28;;;;;;;1742.57;999.90;;;;;;;3.13;100.00;102832.97;5036899;28;21102;-82
2022/01/24 09:12:01;;;;;;;1711.88;999.90;;;;;;;3.11;100.00;102846.59;5031410;28;20404;-80
2022/01/24 09:14:29;;;;;;;1702.03;999.90;;;;;;;3.20;100.00;102837.47;5018434;28;20044;-81
2022/01/24 09:16:58;;;;;;;1708.63;999.90;;;;;;;3.20;100.00;102839.31;5019493;28;20057;-81
2022/01/24 09:19:26;;;;;;;1681.95;999.90;;;;;;;3.09;100.00;102843.25;5018928;28;20064;-80
2022/01/24 09:22:01;;;;;;;1623.75;999.90;;;;;;;3.04;100.00;102838.41;5022442;28;21356;-79
2022/01/24 09:24:29;;;;;;;1608.78;999.90;;;;;;;2.99;100.00;102821.13;5018449;28;20053;-81
2022/01/24 09:27:03;;;;;;;1618.93;999.90;;;;;;;3.08;100.00;102843.41;5022217;28;20064;-82
2022/01/24 09:29:36;;;;;;;1649.50;999.90;;;;;;;3.05;100.00;102832.00;5036055;28;20052;-80
2022/01/24 09:32:10;;;;;;;1656.63;999.90;;;;;;;3.14;100.00;102840.03;5016395;28;20052;-80
2022/01/24 09:34:43;;;;;;;1642.55;999.90;;;;;;;3.09;100.00;102835.16;5026260;28;20060;-80
2022/01/24 09:37:18;;;;;;;1651.22;999.90;;;;;;;3.11;100.00;102826.91;5014738;28;20057;-80
2022/01/24 09:39:51;;;;;;;1678.45;999.90;;;;;;;3.08;100.00;102835.34;5026688;28;20070;-81
2022/01/24 09:42:24;;;;;;;1660.32;999.90;;;;;;;3.11;100.00;102837.69;5016442;28;20050;-81
2022/01/24 09:44:58;;;;;;;1664.38;999.90;;;;;;;3.12;100.00;102837.53;5020260;28;20056;-80
2022/01/24 09:47:32;;;;;;;1661.43;999.90;;;;;;;3.21;100.00;102838.31;5013530;28;20575;-79
2022/01/24 09:50:07;;;;;;;1660.60;999.90;;;;;;;3.16;100.00;102838.00;5016919;28;20053;-80
2022/01/24 09:52:44;;;;;;;1646.72;999.90;;;;;;;3.17;100.00;102835.13;5024076;28;20052;-80
2022/01/24 09:55:20;;;;;;;1642.13;999.90;;;;;;;3.23;100.00;102834.44;5020631;28;20592;-79
2022/01/24 09:57:53;;;;;;;1621.57;999.90;;;;;;;3.17;100.00;102847.75;5020765;28;20049;-80
2022/01/24 10:00:29;;;;;;;1602.80;999.90;;;;;;;3.18;100.00;102846.75;5014776;28;20045;-80
2022/01/24 10:03:02;;;;;;;1565.85;999.90;;;;;;;3.09;100.00;102832.47;5020266;28;20049;-80
2022/01/24 10:05:38;;;;;;;1548.15;999.90;;;;;;;3.10;100.00;102838.72;5030234;28;20053;-80
2022/01/24 10:08:17;;;;;;;1579.00;999.90;;;;;;;3.20;100.00;102842.00;5015936;28;20055;-80
2022/01/24 10:10:52;;;;;;;1580.85;999.90;;;;;;;3.11;100.00;102835.00;5011822;28;20573;-80
2022/01/24 10:16:30;;;;;;;1548.25;999.90;;;;;;;3.13;100.00;102836.50;5020210;28;20087;-80
2022/01/24 10:19:10;;;;;;;1532.13;999.90;;;;;;;3.23;100.00;102844.34;5019508;28;20513;-80
2022/01/24 10:21:45;;;;;;;1484.97;999.90;;;;;;;3.26;100.00;102841.31;5013329;28;20045;-80
2022/01/24 10:24:37;;;;;;;1430.20;999.90;;;;;;;3.37;100.00;102848.97;5014876;28;20052;-80
2022/01/24 10:27:15;;;;;;;1378.90;999.90;;;;;;;3.31;100.00;102852.38;5016388;28;20041;-80
2022/01/24 10:29:50;;;;;;;1360.47;999.90;;;;;;;3.36;100.00;102849.16;5020769;28;20404;-80
2022/01/24 10:32:36;;;;;;;1351.35;999.90;;;;;;;3.34;100.00;102837.72;5016253;28;20048;-81
2022/01/24 10:35:25;;;;;;;1330.75;999.90;;;;;;;3.27;100.00;102851.03;5015067;28;20056;-80
2022/01/24 10:38:25;;;;;;;1325.53;999.90;;;;;;;3.35;100.00;102848.31;5018985;28;20057;-80
2022/01/24 10:41:12;;;;;;;1331.70;999.90;;;;;;;3.36;100.00;102846.47;5010792;28;20041;-81
2022/01/24 10:43:42;;;;;;;1330.78;999.90;;;;;;;3.37;100.00;102848.13;5014503;28;20053;-80
2022/01/24 10:46:21;;;;;;;1330.28;999.90;;;;;;;3.32;100.00;102839.75;5018367;28;20056;-80
2022/01/24 10:49:02;;;;;;;1306.80;999.90;;;;;;;3.38;100.00;102839.91;5031034;28;20465;-80
2022/01/24 10:51:38;;;;;;;1300.65;999.90;;;;;;;3.48;100.00;102845.03;5025597;28;20384;-80
2022/01/24 10:54:14;;;;;;;1268.93;999.90;;;;;;;3.47;100.00;102835.28;5019212;28;20053;-79
2022/01/24 10:56:49;;;;;;;1246.50;999.90;;;;;;;3.40;100.00;102831.63;5028622;28;20183;-81
2022/01/24 10:59:25;;;;;;;1226.50;999.90;;;;;;;3.34;100.00;102832.34;5018940;28;20061;-80
2022/01/24 11:02:01;;;;;;;1237.07;999.90;;;;;;;3.34;100.00;102829.63;5023484;28;20041;-80
2022/01/24 11:04:29;;;;;;;1245.03;999.90;;;;;;;3.38;100.00;102831.81;5021608;28;20053;-79
2022/01/24 11:07:04;;;;;;;1242.18;999.90;;;;;;;3.40;100.00;102826.25;5019569;28;20049;-79
2022/01/24 11:09:41;;;;;;;1254.47;999.90;;;;;;;3.43;100.00;102811.59;5022089;28;20355;-81
2022/01/24 11:12:18;;;;;;;1261.97;999.90;;;;;;;3.52;100.00;102819.44;5028688;28;20053;-79
2022/01/24 11:14:53;;;;;;;1263.05;999.90;;;;;;;3.46;100.00;102814.75;5017239;28;20056;-80
2022/01/24 11:17:30;;;;;;;1252.45;999.90;;;;;;;3.39;100.00;102805.72;5014983;28;20055;-80
2022/01/24 11:20:06;;;;;;;1254.80;999.90;;;;;;;3.45;100.00;102807.69;5019834;28;20559;-80
2022/01/24 11:22:40;;;;;;;1249.15;999.90;;;;;;;3.45;100.00;102801.47;5021977;28;20052;-80
2022/01/24 11:25:09;;;;;;;1248.63;999.90;;;;;;;3.42;100.00;102801.84;5014557;28;20052;-81
2022/01/24 11:27:47;;;;;;;1237.38;999.90;;;;;;;3.40;100.00;102810.09;5034660;28;20060;-80
2022/01/24 11:30:23;;;;;;;1229.45;999.90;;;;;;;3.45;100.00;102815.75;5018117;28;20048;-80
2022/01/24 11:32:57;;;;;;;1227.20;999.90;;;;;;;3.48;100.00;102812.75;5027883;28;20064;-79
2022/01/24 11:35:34;;;;;;;1222.07;999.90;;;;;;;3.45;100.00;102805.00;5037902;28;20061;-80
2022/01/24 11:38:27;;;;;;;1221.18;999.90;;;;;;;3.51;100.00;102798.09;5030804;28;20071;-80
2022/01/24 11:41:02;;;;;;;1210.75;999.90;;;;;;;3.41;100.00;102784.84;5017019;28;21073;-79
2022/01/24 11:43:35;;;;;;;1209.28;999.90;;;;;;;3.44;100.00;102789.88;5026125;28;20053;-80
2022/01/24 11:46:37;;;;;;;1220.05;999.90;;;;;;;3.50;100.00;102791.00;5025207;28;20430;-79
2022/01/24 11:49:13;;;;;;;1224.38;999.90;;;;;;;3.51;100.00;102795.38;5024137;28;20044;-80
2022/01/24 11:51:49;;;;;;;1203.85;999.90;;;;;;;3.53;100.00;102796.84;5016776;28;20045;-80
2022/01/24 11:54:32;;;;;;;1212.50;999.90;;;;;;;3.51;100.00;102787.31;5013550;28;20051;-79
2022/01/24 11:57:25;;;;;;;1217.03;999.90;;;;;;;3.51;100.00;102795.38;5016122;28;20044;-79
2022/01/24 12:00:21;;;;;;;1211.57;999.90;;;;;;;3.53;100.00;102794.16;5024516;28;20053;-81
2022/01/24 12:02:56;;;;;;;1204.28;999.90;;;;;;;3.60;100.00;102798.84;5028482;28;20049;-80
2022/01/24 12:05:41;;;;;;;1193.63;999.90;;;;;;;3.56;100.00;102799.22;5019106;28;20059;-79
2022/01/24 12:08:29;;;;;;;1188.32;999.90;;;;;;;3.57;100.00;102791.97;5024057;28;20059;-77
2022/01/24 12:11:14;;;;;;;1188.93;999.90;;;;;;;3.41;100.00;102774.06;5016514;28;20056;-79
2022/01/24 12:13:51;;;;;;;1193.97;999.90;;;;;;;3.53;100.00;102785.25;5012975;28;20041;-80
2022/01/24 12:16:22;;;;;;;1177.35;999.90;;;;;;;3.58;100.00;102785.56;5021280;28;20057;-79
2022/01/24 12:19:01;;;;;;;1165.32;999.90;;;;;;;3.57;100.00;102779.31;5039767;28;20053;-79
2022/01/24 12:21:36;;;;;;;1168.78;999.90;;;;;;;3.48;100.00;102780.44;5023997;28;20445;-80